sensor_id;sensor_type;location;lat;lon;timestamp;temperature;humidity
18229;DHT22;9239;50.932;3.142;2023-08-07T00:00:54;13.40;99.90
18229;DHT22;9239;50.932;3.142;2023-08-07T00:03:21;13.40;99.90
18229;DHT22;9239;50.932;3.142;2023-08-07T00:05:48;13.30;99.90
18229;DHT22;9239;50.932;3.142;2023-08-07T00:08:18;13.30;99.90
18229;DHT22;9239;50.932;3.142;2023-08-07T00:10:45;13.30;99.90
18229;DHT22;9239;50.932;3.142;2023-08-07T00:13:13;13.30;99.90
18229;DHT22;9239;50.932;3.142;2023-08-07T00:15:40;13.30;99.90
18229;DHT22;9239;50.932;3.142;2023-08-07T00:18:07;13.30;99.90
18229;DHT22;9239;50.932;3.142;2023-08-07T00:20:34;13.30;99.90
18229;DHT22;9239;50.932;3.142;2023-08-07T00:23:01;13.30;99.90
18229;DHT22;9239;50.932;3.142;2023-08-07T00:25:29;13.30;99.90
18229;DHT22;9239;50.932;3.142;2023-08-07T00:27:56;13.30;99.90
18229;DHT22;9239;50.932;3.142;2023-08-07T00:30:23;13.20;99.90
18229;DHT22;9239;50.932;3.142;2023-08-07T00:32:50;13.20;99.90
18229;DHT22;9239;50.932;3.142;2023-08-07T00:35:17;13.10;99.90
18229;DHT22;9239;50.932;3.142;2023-08-07T00:37:44;13.20;99.90
18229;DHT22;9239;50.932;3.142;2023-08-07T00:40:11;13.20;99.90
18229;DHT22;9239;50.932;3.142;2023-08-07T00:42:40;13.10;99.90
18229;DHT22;9239;50.932;3.142;2023-08-07T00:45:07;13.10;99.90
18229;DHT22;9239;50.932;3.142;2023-08-07T00:47:34;13.10;99.90
18229;DHT22;9239;50.932;3.142;2023-08-07T00:50:04;13.10;99.90
18229;DHT22;9239;50.932;3.142;2023-08-07T00:52:32;13.00;99.90
18229;DHT22;9239;50.932;3.142;2023-08-07T00:54:59;13.00;99.90
18229;DHT22;9239;50.932;3.142;2023-08-07T00:57:26;13.00;99.90
18229;DHT22;9239;50.932;3.142;2023-08-07T00:59:55;13.00;99.90
18229;DHT22;9239;50.932;3.142;2023-08-07T01:02:22;12.90;99.90
18229;DHT22;9239;50.932;3.142;2023-08-07T01:04:49;12.90;99.90
18229;DHT22;9239;50.932;3.142;2023-08-07T01:07:16;12.90;99.90
18229;DHT22;9239;50.932;3.142;2023-08-07T01:09:43;12.80;99.90
18229;DHT22;9239;50.932;3.142;2023-08-07T01:12:16;12.80;99.90
18229;DHT22;9239;50.932;3.142;2023-08-07T01:14:50;12.80;99.90
18229;DHT22;9239;50.932;3.142;2023-08-07T01:17:20;12.80;99.90
18229;DHT22;9239;50.932;3.142;2023-08-07T01:19:50;12.80;99.90
18229;DHT22;9239;50.932;3.142;2023-08-07T01:22:19;12.80;99.90
18229;DHT22;9239;50.932;3.142;2023-08-07T01:24:47;12.80;99.90
18229;DHT22;9239;50.932;3.142;2023-08-07T01:27:31;12.80;99.90
18229;DHT22;9239;50.932;3.142;2023-08-07T01:30:05;12.80;99.90
18229;DHT22;9239;50.932;3.142;2023-08-07T01:32:39;12.80;99.90
18229;DHT22;9239;50.932;3.142;2023-08-07T01:35:08;12.80;99.90
18229;DHT22;9239;50.932;3.142;2023-08-07T01:37:40;12.80;99.90
18229;DHT22;9239;50.932;3.142;2023-08-07T01:40:09;12.80;99.90
18229;DHT22;9239;50.932;3.142;2023-08-07T01:42:36;12.70;99.90
18229;DHT22;9239;50.932;3.142;2023-08-07T01:45:04;12.70;99.90
18229;DHT22;9239;50.932;3.142;2023-08-07T01:47:32;12.70;99.90
18229;DHT22;9239;50.932;3.142;2023-08-07T01:49:59;12.70;99.90
18229;DHT22;9239;50.932;3.142;2023-08-07T01:52:26;12.70;99.90
18229;DHT22;9239;50.932;3.142;2023-08-07T01:54:54;12.70;99.90
18229;DHT22;9239;50.932;3.142;2023-08-07T01:57:21;12.70;99.90
18229;DHT22;9239;50.932;3.142;2023-08-07T01:59:48;12.70;99.90
18229;DHT22;9239;50.932;3.142;2023-08-07T02:02:15;12.70;99.90
18229;DHT22;9239;50.932;3.142;2023-08-07T02:04:42;12.70;99.90
18229;DHT22;9239;50.932;3.142;2023-08-07T02:07:09;12.60;99.90
18229;DHT22;9239;50.932;3.142;2023-08-07T02:09:36;12.60;99.90
18229;DHT22;9239;50.932;3.142;2023-08-07T02:12:05;12.60;99.90
18229;DHT22;9239;50.932;3.142;2023-08-07T02:14:32;12.60;99.90
18229;DHT22;9239;50.932;3.142;2023-08-07T02:16:59;12.60;99.90
18229;DHT22;9239;50.932;3.142;2023-08-07T02:19:26;12.50;99.90
18229;DHT22;9239;50.932;3.142;2023-08-07T02:21:53;12.50;99.90
18229;DHT22;9239;50.932;3.142;2023-08-07T02:24:20;12.50;99.90
18229;DHT22;9239;50.932;3.142;2023-08-07T02:26:47;12.50;99.90
18229;DHT22;9239;50.932;3.142;2023-08-07T02:29:15;12.50;99.90
18229;DHT22;9239;50.932;3.142;2023-08-07T02:31:42;12.50;99.90
18229;DHT22;9239;50.932;3.142;2023-08-07T02:34:09;12.50;99.90
18229;DHT22;9239;50.932;3.142;2023-08-07T02:36:36;12.50;99.90
18229;DHT22;9239;50.932;3.142;2023-08-07T02:39:04;12.50;99.90
18229;DHT22;9239;50.932;3.142;2023-08-07T02:41:31;12.60;99.90
18229;DHT22;9239;50.932;3.142;2023-08-07T02:43:58;12.60;99.90
18229;DHT22;9239;50.932;3.142;2023-08-07T02:46:26;12.60;99.90
18229;DHT22;9239;50.932;3.142;2023-08-07T02:48:53;12.60;99.90
18229;DHT22;9239;50.932;3.142;2023-08-07T02:51:20;12.60;99.90
18229;DHT22;9239;50.932;3.142;2023-08-07T02:53:47;12.60;99.90
18229;DHT22;9239;50.932;3.142;2023-08-07T02:56:14;12.60;99.90
18229;DHT22;9239;50.932;3.142;2023-08-07T02:58:41;12.70;99.90
18229;DHT22;9239;50.932;3.142;2023-08-07T03:01:08;12.70;99.90
18229;DHT22;9239;50.932;3.142;2023-08-07T03:03:36;12.70;99.90
18229;DHT22;9239;50.932;3.142;2023-08-07T03:06:03;12.70;99.90
18229;DHT22;9239;50.932;3.142;2023-08-07T03:08:30;12.70;99.90
18229;DHT22;9239;50.932;3.142;2023-08-07T03:10:58;12.70;99.90
18229;DHT22;9239;50.932;3.142;2023-08-07T03:13:25;12.60;99.90
18229;DHT22;9239;50.932;3.142;2023-08-07T03:15:59;12.60;99.90
18229;DHT22;9239;50.932;3.142;2023-08-07T03:18:26;12.60;99.90
18229;DHT22;9239;50.932;3.142;2023-08-07T03:20:54;12.50;99.90
18229;DHT22;9239;50.932;3.142;2023-08-07T03:23:21;12.50;99.90
18229;DHT22;9239;50.932;3.142;2023-08-07T03:25:48;12.50;99.90
18229;DHT22;9239;50.932;3.142;2023-08-07T03:28:16;12.50;99.90
18229;DHT22;9239;50.932;3.142;2023-08-07T03:30:43;12.50;99.90
18229;DHT22;9239;50.932;3.142;2023-08-07T03:33:10;12.50;99.90
18229;DHT22;9239;50.932;3.142;2023-08-07T03:35:37;12.40;99.90
18229;DHT22;9239;50.932;3.142;2023-08-07T03:38:05;12.40;99.90
18229;DHT22;9239;50.932;3.142;2023-08-07T03:40:33;12.30;99.90
18229;DHT22;9239;50.932;3.142;2023-08-07T03:43:00;12.30;99.90
18229;DHT22;9239;50.932;3.142;2023-08-07T03:45:27;12.30;99.90
18229;DHT22;9239;50.932;3.142;2023-08-07T03:47:54;12.30;99.90
18229;DHT22;9239;50.932;3.142;2023-08-07T03:50:21;12.30;99.90
18229;DHT22;9239;50.932;3.142;2023-08-07T03:52:48;12.30;99.90
18229;DHT22;9239;50.932;3.142;2023-08-07T03:55:16;12.30;99.90
18229;DHT22;9239;50.932;3.142;2023-08-07T03:57:43;12.30;99.90
18229;DHT22;9239;50.932;3.142;2023-08-07T04:00:12;12.30;99.90
18229;DHT22;9239;50.932;3.142;2023-08-07T04:02:39;12.30;99.90
18229;DHT22;9239;50.932;3.142;2023-08-07T04:05:06;12.30;99.90
18229;DHT22;9239;50.932;3.142;2023-08-07T04:07:33;12.30;99.90
18229;DHT22;9239;50.932;3.142;2023-08-07T04:10:00;12.20;99.90
18229;DHT22;9239;50.932;3.142;2023-08-07T04:12:29;12.20;99.90
18229;DHT22;9239;50.932;3.142;2023-08-07T04:14:56;12.20;99.90
18229;DHT22;9239;50.932;3.142;2023-08-07T04:17:23;12.30;99.90
18229;DHT22;9239;50.932;3.142;2023-08-07T04:19:50;12.20;99.90
18229;DHT22;9239;50.932;3.142;2023-08-07T04:22:17;12.20;99.90
18229;DHT22;9239;50.932;3.142;2023-08-07T04:24:44;12.30;99.90
18229;DHT22;9239;50.932;3.142;2023-08-07T04:27:11;12.30;99.90
18229;DHT22;9239;50.932;3.142;2023-08-07T04:29:40;12.30;99.90
18229;DHT22;9239;50.932;3.142;2023-08-07T04:32:07;12.30;99.90
18229;DHT22;9239;50.932;3.142;2023-08-07T04:34:34;12.30;99.90
18229;DHT22;9239;50.932;3.142;2023-08-07T04:37:01;12.30;99.90
18229;DHT22;9239;50.932;3.142;2023-08-07T04:39:29;12.40;99.90
18229;DHT22;9239;50.932;3.142;2023-08-07T04:41:56;12.40;99.90
18229;DHT22;9239;50.932;3.142;2023-08-07T04:44:23;12.40;99.90
18229;DHT22;9239;50.932;3.142;2023-08-07T04:46:51;12.50;99.90
18229;DHT22;9239;50.932;3.142;2023-08-07T04:49:19;12.60;99.90
18229;DHT22;9239;50.932;3.142;2023-08-07T04:51:46;12.70;99.90
18229;DHT22;9239;50.932;3.142;2023-08-07T04:54:13;12.80;99.90
18229;DHT22;9239;50.932;3.142;2023-08-07T04:56:39;12.90;99.90
18229;DHT22;9239;50.932;3.142;2023-08-07T04:59:10;13.00;99.90
18229;DHT22;9239;50.932;3.142;2023-08-07T05:01:37;13.10;99.90
18229;DHT22;9239;50.932;3.142;2023-08-07T05:04:06;13.20;99.90
18229;DHT22;9239;50.932;3.142;2023-08-07T05:06:33;13.30;99.90
18229;DHT22;9239;50.932;3.142;2023-08-07T05:09:00;13.30;99.90
18229;DHT22;9239;50.932;3.142;2023-08-07T05:11:28;13.40;99.90
18229;DHT22;9239;50.932;3.142;2023-08-07T05:13:55;13.50;99.90
18229;DHT22;9239;50.932;3.142;2023-08-07T05:16:23;13.60;99.90
18229;DHT22;9239;50.932;3.142;2023-08-07T05:18:50;13.70;99.90
18229;DHT22;9239;50.932;3.142;2023-08-07T05:21:18;13.70;99.90
18229;DHT22;9239;50.932;3.142;2023-08-07T05:23:45;13.70;99.90
18229;DHT22;9239;50.932;3.142;2023-08-07T05:26:13;13.70;99.90
18229;DHT22;9239;50.932;3.142;2023-08-07T05:28:40;13.80;99.90
18229;DHT22;9239;50.932;3.142;2023-08-07T05:31:07;13.90;99.90
18229;DHT22;9239;50.932;3.142;2023-08-07T05:33:34;14.10;99.90
18229;DHT22;9239;50.932;3.142;2023-08-07T05:36:01;14.20;99.90
18229;DHT22;9239;50.932;3.142;2023-08-07T05:38:29;14.50;99.90
18229;DHT22;9239;50.932;3.142;2023-08-07T05:40:56;14.80;99.90
18229;DHT22;9239;50.932;3.142;2023-08-07T05:43:23;15.20;99.90
18229;DHT22;9239;50.932;3.142;2023-08-07T05:45:50;15.50;99.90
18229;DHT22;9239;50.932;3.142;2023-08-07T05:48:17;15.30;99.90
18229;DHT22;9239;50.932;3.142;2023-08-07T05:50:44;15.20;99.90
18229;DHT22;9239;50.932;3.142;2023-08-07T05:53:11;15.00;99.90
18229;DHT22;9239;50.932;3.142;2023-08-07T05:55:40;14.80;99.90
18229;DHT22;9239;50.932;3.142;2023-08-07T05:58:07;14.70;99.90
18229;DHT22;9239;50.932;3.142;2023-08-07T06:00:35;14.70;99.90
18229;DHT22;9239;50.932;3.142;2023-08-07T06:03:02;14.70;99.90
18229;DHT22;9239;50.932;3.142;2023-08-07T06:05:29;14.70;99.90
18229;DHT22;9239;50.932;3.142;2023-08-07T06:07:56;14.60;99.90
18229;DHT22;9239;50.932;3.142;2023-08-07T06:10:23;14.70;99.90
18229;DHT22;9239;50.932;3.142;2023-08-07T06:12:52;14.70;99.90
18229;DHT22;9239;50.932;3.142;2023-08-07T06:15:19;14.70;99.90
18229;DHT22;9239;50.932;3.142;2023-08-07T06:17:46;14.80;99.90
18229;DHT22;9239;50.932;3.142;2023-08-07T06:20:13;14.90;99.90
18229;DHT22;9239;50.932;3.142;2023-08-07T06:22:41;15.00;99.90
18229;DHT22;9239;50.932;3.142;2023-08-07T06:25:09;15.10;99.90
18229;DHT22;9239;50.932;3.142;2023-08-07T06:27:36;15.20;99.90
18229;DHT22;9239;50.932;3.142;2023-08-07T06:30:05;15.50;99.90
18229;DHT22;9239;50.932;3.142;2023-08-07T06:32:32;16.30;99.90
18229;DHT22;9239;50.932;3.142;2023-08-07T06:34:59;17.20;99.90
18229;DHT22;9239;50.932;3.142;2023-08-07T06:37:27;18.20;99.90
18229;DHT22;9239;50.932;3.142;2023-08-07T06:39:54;19.60;99.90
18229;DHT22;9239;50.932;3.142;2023-08-07T06:42:21;20.40;99.90
18229;DHT22;9239;50.932;3.142;2023-08-07T06:44:48;20.80;99.90
18229;DHT22;9239;50.932;3.142;2023-08-07T06:47:16;21.50;99.90
18229;DHT22;9239;50.932;3.142;2023-08-07T06:49:43;22.00;99.90
18229;DHT22;9239;50.932;3.142;2023-08-07T06:52:10;22.00;99.90
18229;DHT22;9239;50.932;3.142;2023-08-07T06:54:37;22.30;99.90
18229;DHT22;9239;50.932;3.142;2023-08-07T06:57:05;22.10;99.90
18229;DHT22;9239;50.932;3.142;2023-08-07T06:59:32;21.30;99.90
18229;DHT22;9239;50.932;3.142;2023-08-07T07:01:59;20.60;99.90
18229;DHT22;9239;50.932;3.142;2023-08-07T07:04:27;20.50;99.90
18229;DHT22;9239;50.932;3.142;2023-08-07T07:06:54;20.60;99.90
18229;DHT22;9239;50.932;3.142;2023-08-07T07:09:22;19.80;99.90
18229;DHT22;9239;50.932;3.142;2023-08-07T07:11:49;18.70;99.90
18229;DHT22;9239;50.932;3.142;2023-08-07T07:14:16;17.90;99.90
18229;DHT22;9239;50.932;3.142;2023-08-07T07:16:43;17.30;99.90
18229;DHT22;9239;50.932;3.142;2023-08-07T07:19:10;17.00;99.90
18229;DHT22;9239;50.932;3.142;2023-08-07T07:21:38;16.70;99.90
18229;DHT22;9239;50.932;3.142;2023-08-07T07:24:05;16.50;99.90
18229;DHT22;9239;50.932;3.142;2023-08-07T07:26:33;16.30;99.90
18229;DHT22;9239;50.932;3.142;2023-08-07T07:29:00;16.30;99.90
18229;DHT22;9239;50.932;3.142;2023-08-07T07:31:27;16.30;99.90
18229;DHT22;9239;50.932;3.142;2023-08-07T07:33:54;16.40;99.90
18229;DHT22;9239;50.932;3.142;2023-08-07T07:36:21;16.40;99.90
18229;DHT22;9239;50.932;3.142;2023-08-07T07:38:49;16.30;99.90
18229;DHT22;9239;50.932;3.142;2023-08-07T07:41:16;16.40;99.90
18229;DHT22;9239;50.932;3.142;2023-08-07T07:43:44;16.60;99.90
18229;DHT22;9239;50.932;3.142;2023-08-07T07:46:11;16.70;99.90
18229;DHT22;9239;50.932;3.142;2023-08-07T07:48:38;16.80;99.90
18229;DHT22;9239;50.932;3.142;2023-08-07T07:51:05;16.80;99.90
18229;DHT22;9239;50.932;3.142;2023-08-07T07:53:32;16.80;99.90
18229;DHT22;9239;50.932;3.142;2023-08-07T07:56:00;16.80;99.90
18229;DHT22;9239;50.932;3.142;2023-08-07T07:58:27;16.80;99.90
18229;DHT22;9239;50.932;3.142;2023-08-07T08:00:54;17.00;99.90
18229;DHT22;9239;50.932;3.142;2023-08-07T08:03:22;17.10;99.90
18229;DHT22;9239;50.932;3.142;2023-08-07T08:05:50;17.20;99.90
18229;DHT22;9239;50.932;3.142;2023-08-07T08:08:17;17.30;99.90
18229;DHT22;9239;50.932;3.142;2023-08-07T08:10:45;17.40;99.90
18229;DHT22;9239;50.932;3.142;2023-08-07T08:13:14;17.30;99.90
18229;DHT22;9239;50.932;3.142;2023-08-07T08:15:42;17.30;99.90
18229;DHT22;9239;50.932;3.142;2023-08-07T08:18:09;17.20;99.90
18229;DHT22;9239;50.932;3.142;2023-08-07T08:20:36;17.20;99.90
18229;DHT22;9239;50.932;3.142;2023-08-07T08:23:03;17.30;99.90
18229;DHT22;9239;50.932;3.142;2023-08-07T08:25:30;17.20;99.90
18229;DHT22;9239;50.932;3.142;2023-08-07T08:27:58;17.30;99.90
18229;DHT22;9239;50.932;3.142;2023-08-07T08:30:27;17.50;99.90
18229;DHT22;9239;50.932;3.142;2023-08-07T08:32:54;17.60;99.90
18229;DHT22;9239;50.932;3.142;2023-08-07T08:35:21;17.70;99.90
18229;DHT22;9239;50.932;3.142;2023-08-07T08:37:48;17.80;99.90
18229;DHT22;9239;50.932;3.142;2023-08-07T08:40:15;17.80;99.90
18229;DHT22;9239;50.932;3.142;2023-08-07T08:42:45;17.70;99.90
18229;DHT22;9239;50.932;3.142;2023-08-07T08:45:13;17.60;99.90
18229;DHT22;9239;50.932;3.142;2023-08-07T08:47:43;17.50;99.90
18229;DHT22;9239;50.932;3.142;2023-08-07T08:50:12;17.50;99.90
18229;DHT22;9239;50.932;3.142;2023-08-07T08:52:42;17.60;99.90
18229;DHT22;9239;50.932;3.142;2023-08-07T08:55:10;17.70;99.90
18229;DHT22;9239;50.932;3.142;2023-08-07T08:57:38;17.70;99.90
18229;DHT22;9239;50.932;3.142;2023-08-07T09:00:07;17.60;99.90
18229;DHT22;9239;50.932;3.142;2023-08-07T09:02:45;17.60;99.90
18229;DHT22;9239;50.932;3.142;2023-08-07T09:05:14;17.70;99.90
18229;DHT22;9239;50.932;3.142;2023-08-07T09:07:41;17.90;99.90
18229;DHT22;9239;50.932;3.142;2023-08-07T09:10:10;18.20;99.90
18229;DHT22;9239;50.932;3.142;2023-08-07T09:12:40;18.00;99.90
18229;DHT22;9239;50.932;3.142;2023-08-07T09:15:09;17.80;99.90
18229;DHT22;9239;50.932;3.142;2023-08-07T09:17:40;17.80;99.90
18229;DHT22;9239;50.932;3.142;2023-08-07T09:20:10;17.80;99.90
18229;DHT22;9239;50.932;3.142;2023-08-07T09:22:40;17.90;99.90
18229;DHT22;9239;50.932;3.142;2023-08-07T09:25:08;18.00;99.90
18229;DHT22;9239;50.932;3.142;2023-08-07T09:27:36;18.00;99.90
18229;DHT22;9239;50.932;3.142;2023-08-07T09:30:07;18.20;99.90
18229;DHT22;9239;50.932;3.142;2023-08-07T09:32:35;18.40;99.90
18229;DHT22;9239;50.932;3.142;2023-08-07T09:35:05;18.30;99.90
18229;DHT22;9239;50.932;3.142;2023-08-07T09:37:36;18.20;99.90
18229;DHT22;9239;50.932;3.142;2023-08-07T09:40:05;18.30;99.90
18229;DHT22;9239;50.932;3.142;2023-08-07T09:42:35;18.30;99.90
18229;DHT22;9239;50.932;3.142;2023-08-07T09:45:19;18.40;99.90
18229;DHT22;9239;50.932;3.142;2023-08-07T09:47:46;18.50;99.90
18229;DHT22;9239;50.932;3.142;2023-08-07T09:50:15;18.50;99.90
18229;DHT22;9239;50.932;3.142;2023-08-07T09:52:48;18.50;99.90
18229;DHT22;9239;50.932;3.142;2023-08-07T09:55:15;18.50;99.90
18229;DHT22;9239;50.932;3.142;2023-08-07T09:57:43;18.60;99.90
18229;DHT22;9239;50.932;3.142;2023-08-07T10:00:12;18.70;99.90
18229;DHT22;9239;50.932;3.142;2023-08-07T10:02:40;18.80;99.90
18229;DHT22;9239;50.932;3.142;2023-08-07T10:05:09;18.60;99.90
18229;DHT22;9239;50.932;3.142;2023-08-07T10:07:37;18.40;99.90
18229;DHT22;9239;50.932;3.142;2023-08-07T10:10:07;18.30;99.90
18229;DHT22;9239;50.932;3.142;2023-08-07T10:12:34;18.20;99.90
18229;DHT22;9239;50.932;3.142;2023-08-07T10:15:02;18.20;99.90
18229;DHT22;9239;50.932;3.142;2023-08-07T10:17:30;18.40;99.90
18229;DHT22;9239;50.932;3.142;2023-08-07T10:19:59;18.50;99.90
18229;DHT22;9239;50.932;3.142;2023-08-07T10:22:29;18.70;99.90
18229;DHT22;9239;50.932;3.142;2023-08-07T10:24:59;18.70;99.90
18229;DHT22;9239;50.932;3.142;2023-08-07T10:27:34;18.70;99.90
18229;DHT22;9239;50.932;3.142;2023-08-07T10:30:04;18.70;99.90
18229;DHT22;9239;50.932;3.142;2023-08-07T10:32:33;18.60;99.90
18229;DHT22;9239;50.932;3.142;2023-08-07T10:35:03;18.80;99.90
18229;DHT22;9239;50.932;3.142;2023-08-07T10:37:39;18.70;99.90
18229;DHT22;9239;50.932;3.142;2023-08-07T10:40:08;18.60;99.90
18229;DHT22;9239;50.932;3.142;2023-08-07T10:42:55;18.60;99.90
18229;DHT22;9239;50.932;3.142;2023-08-07T10:45:24;18.70;99.90
18229;DHT22;9239;50.932;3.142;2023-08-07T10:48:07;18.90;99.90
18229;DHT22;9239;50.932;3.142;2023-08-07T10:50:48;18.90;99.90
18229;DHT22;9239;50.932;3.142;2023-08-07T10:53:19;18.80;99.90
18229;DHT22;9239;50.932;3.142;2023-08-07T10:55:48;18.80;99.90
18229;DHT22;9239;50.932;3.142;2023-08-07T10:58:24;18.60;99.90
18229;DHT22;9239;50.932;3.142;2023-08-07T11:00:52;18.50;99.90
18229;DHT22;9239;50.932;3.142;2023-08-07T11:03:41;18.50;99.90
18229;DHT22;9239;50.932;3.142;2023-08-07T11:06:09;18.70;99.90
18229;DHT22;9239;50.932;3.142;2023-08-07T11:08:36;18.90;99.90
18229;DHT22;9239;50.932;3.142;2023-08-07T11:11:04;19.00;99.90
18229;DHT22;9239;50.932;3.142;2023-08-07T11:13:33;19.10;99.90
18229;DHT22;9239;50.932;3.142;2023-08-07T11:16:02;19.10;99.90
18229;DHT22;9239;50.932;3.142;2023-08-07T11:18:30;19.10;99.90
18229;DHT22;9239;50.932;3.142;2023-08-07T11:20:57;19.10;99.90
18229;DHT22;9239;50.932;3.142;2023-08-07T11:23:24;19.10;99.90
18229;DHT22;9239;50.932;3.142;2023-08-07T11:25:53;19.00;99.90
18229;DHT22;9239;50.932;3.142;2023-08-07T11:28:20;19.00;99.90
18229;DHT22;9239;50.932;3.142;2023-08-07T11:30:50;19.10;99.90
18229;DHT22;9239;50.932;3.142;2023-08-07T11:33:17;19.30;99.90
18229;DHT22;9239;50.932;3.142;2023-08-07T11:35:45;19.40;99.90
18229;DHT22;9239;50.932;3.142;2023-08-07T11:38:12;19.20;99.90
18229;DHT22;9239;50.932;3.142;2023-08-07T11:40:39;19.10;99.90
18229;DHT22;9239;50.932;3.142;2023-08-07T11:43:06;19.00;99.90
18229;DHT22;9239;50.932;3.142;2023-08-07T11:45:33;19.10;99.90
18229;DHT22;9239;50.932;3.142;2023-08-07T11:48:03;19.10;99.90
18229;DHT22;9239;50.932;3.142;2023-08-07T11:50:30;19.20;99.90
18229;DHT22;9239;50.932;3.142;2023-08-07T11:52:57;19.10;99.90
18229;DHT22;9239;50.932;3.142;2023-08-07T11:55:28;19.00;99.90
18229;DHT22;9239;50.932;3.142;2023-08-07T11:57:56;19.10;99.90
18229;DHT22;9239;50.932;3.142;2023-08-07T12:00:25;19.10;99.90
18229;DHT22;9239;50.932;3.142;2023-08-07T12:02:53;19.30;99.90
18229;DHT22;9239;50.932;3.142;2023-08-07T12:05:22;19.30;99.90
18229;DHT22;9239;50.932;3.142;2023-08-07T12:07:49;19.30;99.90
18229;DHT22;9239;50.932;3.142;2023-08-07T12:10:16;19.50;99.90
18229;DHT22;9239;50.932;3.142;2023-08-07T12:12:44;19.60;99.90
18229;DHT22;9239;50.932;3.142;2023-08-07T12:15:11;19.60;99.90
18229;DHT22;9239;50.932;3.142;2023-08-07T12:17:38;19.50;99.90
18229;DHT22;9239;50.932;3.142;2023-08-07T12:20:06;19.60;99.90
18229;DHT22;9239;50.932;3.142;2023-08-07T12:22:37;19.60;99.90
18229;DHT22;9239;50.932;3.142;2023-08-07T12:25:05;19.60;99.90
18229;DHT22;9239;50.932;3.142;2023-08-07T12:27:32;19.70;99.90
18229;DHT22;9239;50.932;3.142;2023-08-07T12:29:59;19.80;99.90
18229;DHT22;9239;50.932;3.142;2023-08-07T12:32:26;19.90;99.90
18229;DHT22;9239;50.932;3.142;2023-08-07T12:34:53;19.90;99.90
18229;DHT22;9239;50.932;3.142;2023-08-07T12:37:20;19.90;99.90
18229;DHT22;9239;50.932;3.142;2023-08-07T12:39:49;19.70;99.90
18229;DHT22;9239;50.932;3.142;2023-08-07T12:42:16;19.60;99.90
18229;DHT22;9239;50.932;3.142;2023-08-07T12:44:43;19.50;99.90
18229;DHT22;9239;50.932;3.142;2023-08-07T12:47:10;19.50;99.90
18229;DHT22;9239;50.932;3.142;2023-08-07T12:49:37;19.60;99.90
18229;DHT22;9239;50.932;3.142;2023-08-07T12:52:05;19.50;99.90
18229;DHT22;9239;50.932;3.142;2023-08-07T12:54:32;19.60;99.90
18229;DHT22;9239;50.932;3.142;2023-08-07T12:57:01;19.60;99.90
18229;DHT22;9239;50.932;3.142;2023-08-07T12:59:28;19.60;99.90
18229;DHT22;9239;50.932;3.142;2023-08-07T13:01:55;19.60;99.90
18229;DHT22;9239;50.932;3.142;2023-08-07T13:04:22;19.60;99.90
18229;DHT22;9239;50.932;3.142;2023-08-07T13:06:49;19.80;99.90
18229;DHT22;9239;50.932;3.142;2023-08-07T13:09:16;20.00;99.90
18229;DHT22;9239;50.932;3.142;2023-08-07T13:11:43;20.00;99.90
18229;DHT22;9239;50.932;3.142;2023-08-07T13:14:12;20.10;99.90
18229;DHT22;9239;50.932;3.142;2023-08-07T13:16:39;20.00;99.90
18229;DHT22;9239;50.932;3.142;2023-08-07T13:19:06;19.80;99.90
18229;DHT22;9239;50.932;3.142;2023-08-07T13:21:33;19.80;99.90
18229;DHT22;9239;50.932;3.142;2023-08-07T13:24:00;19.80;99.90
18229;DHT22;9239;50.932;3.142;2023-08-07T13:26:27;19.70;99.90
18229;DHT22;9239;50.932;3.142;2023-08-07T13:28:54;19.80;99.90
18229;DHT22;9239;50.932;3.142;2023-08-07T13:31:22;19.70;99.90
18229;DHT22;9239;50.932;3.142;2023-08-07T13:33:50;19.70;99.90
18229;DHT22;9239;50.932;3.142;2023-08-07T13:36:17;19.60;99.90
18229;DHT22;9239;50.932;3.142;2023-08-07T13:38:44;19.60;99.90
18229;DHT22;9239;50.932;3.142;2023-08-07T13:41:11;19.60;99.90
18229;DHT22;9239;50.932;3.142;2023-08-07T13:43:38;19.60;99.90
18229;DHT22;9239;50.932;3.142;2023-08-07T13:46:05;19.60;99.90
18229;DHT22;9239;50.932;3.142;2023-08-07T13:48:34;19.60;99.90
18229;DHT22;9239;50.932;3.142;2023-08-07T13:51:00;19.80;99.90
18229;DHT22;9239;50.932;3.142;2023-08-07T13:53:32;20.00;99.90
18229;DHT22;9239;50.932;3.142;2023-08-07T13:55:59;20.00;99.90
18229;DHT22;9239;50.932;3.142;2023-08-07T13:58:26;19.90;99.90
18229;DHT22;9239;50.932;3.142;2023-08-07T14:00:53;19.90;99.90
18229;DHT22;9239;50.932;3.142;2023-08-07T14:03:21;19.80;99.90
18229;DHT22;9239;50.932;3.142;2023-08-07T14:05:50;19.70;99.90
18229;DHT22;9239;50.932;3.142;2023-08-07T14:08:17;19.70;99.90
18229;DHT22;9239;50.932;3.142;2023-08-07T14:10:45;19.70;99.90
18229;DHT22;9239;50.932;3.142;2023-08-07T14:13:12;19.60;99.90
18229;DHT22;9239;50.932;3.142;2023-08-07T14:15:39;19.60;99.90
18229;DHT22;9239;50.932;3.142;2023-08-07T14:18:06;19.70;99.90
18229;DHT22;9239;50.932;3.142;2023-08-07T14:20:34;19.80;99.90
18229;DHT22;9239;50.932;3.142;2023-08-07T14:23:02;19.90;99.90
18229;DHT22;9239;50.932;3.142;2023-08-07T14:25:29;20.00;99.90
18229;DHT22;9239;50.932;3.142;2023-08-07T14:27:56;20.10;99.90
18229;DHT22;9239;50.932;3.142;2023-08-07T14:30:23;20.10;99.90
18229;DHT22;9239;50.932;3.142;2023-08-07T14:32:50;20.10;99.90
18229;DHT22;9239;50.932;3.142;2023-08-07T14:35:17;20.10;99.90
18229;DHT22;9239;50.932;3.142;2023-08-07T14:37:44;20.00;99.90
18229;DHT22;9239;50.932;3.142;2023-08-07T14:40:14;19.80;99.90
18229;DHT22;9239;50.932;3.142;2023-08-07T14:42:41;19.80;99.90
18229;DHT22;9239;50.932;3.142;2023-08-07T14:45:09;19.70;99.90
18229;DHT22;9239;50.932;3.142;2023-08-07T14:47:38;19.80;99.90
18229;DHT22;9239;50.932;3.142;2023-08-07T14:50:06;19.80;99.90
18229;DHT22;9239;50.932;3.142;2023-08-07T14:52:34;19.70;99.90
18229;DHT22;9239;50.932;3.142;2023-08-07T14:55:02;19.70;99.90
18229;DHT22;9239;50.932;3.142;2023-08-07T14:57:31;19.80;99.90
18229;DHT22;9239;50.932;3.142;2023-08-07T14:59:57;19.90;99.90
18229;DHT22;9239;50.932;3.142;2023-08-07T15:02:24;20.00;99.90
18229;DHT22;9239;50.932;3.142;2023-08-07T15:04:51;20.10;99.90
18229;DHT22;9239;50.932;3.142;2023-08-07T15:07:18;20.20;99.90
18229;DHT22;9239;50.932;3.142;2023-08-07T15:09:45;20.20;99.90
18229;DHT22;9239;50.932;3.142;2023-08-07T15:12:15;20.50;99.90
18229;DHT22;9239;50.932;3.142;2023-08-07T15:14:44;20.70;99.90
18229;DHT22;9239;50.932;3.142;2023-08-07T15:17:11;20.80;99.90
18229;DHT22;9239;50.932;3.142;2023-08-07T15:19:38;20.80;99.90
18229;DHT22;9239;50.932;3.142;2023-08-07T15:22:05;20.70;99.90
18229;DHT22;9239;50.932;3.142;2023-08-07T15:24:32;20.70;99.90
18229;DHT22;9239;50.932;3.142;2023-08-07T15:26:59;20.60;99.90
18229;DHT22;9239;50.932;3.142;2023-08-07T15:29:26;20.70;99.90
18229;DHT22;9239;50.932;3.142;2023-08-07T15:31:54;20.80;99.90
18229;DHT22;9239;50.932;3.142;2023-08-07T15:34:21;20.90;99.90
18229;DHT22;9239;50.932;3.142;2023-08-07T15:36:48;20.90;99.90
18229;DHT22;9239;50.932;3.142;2023-08-07T15:39:15;20.80;99.90
18229;DHT22;9239;50.932;3.142;2023-08-07T15:41:43;20.80;99.90
18229;DHT22;9239;50.932;3.142;2023-08-07T15:44:10;20.70;99.90
18229;DHT22;9239;50.932;3.142;2023-08-07T15:46:37;20.70;99.90
18229;DHT22;9239;50.932;3.142;2023-08-07T15:49:05;20.70;99.90